sensor_id;sensor_type;location;lat;lon;timestamp;P1;durP1;ratioP1;P2;durP2;ratioP2
60610;SDS011;46439;51.164;13.572;2023-08-20T00:02:10;9.20;;;6.80;;
60610;SDS011;46439;51.164;13.572;2023-08-20T00:04:40;7.20;;;6.50;;
60610;SDS011;46439;51.164;13.572;2023-08-20T00:07:13;8.80;;;6.80;;
60610;SDS011;46439;51.164;13.572;2023-08-20T00:09:44;8.70;;;6.50;;
60610;SDS011;46439;51.164;13.572;2023-08-20T00:12:13;7.60;;;6.60;;
60610;SDS011;46439;51.164;13.572;2023-08-20T00:14:54;13.10;;;6.70;;
60610;SDS011;46439;51.164;13.572;2023-08-20T00:17:25;9.10;;;6.10;;
60610;SDS011;46439;51.164;13.572;2023-08-20T00:19:55;7.00;;;6.00;;
60610;SDS011;46439;51.164;13.572;2023-08-20T00:22:24;7.50;;;6.00;;
60610;SDS011;46439;51.164;13.572;2023-08-20T00:24:54;10.00;;;6.20;;
60610;SDS011;46439;51.164;13.572;2023-08-20T00:27:23;7.80;;;6.00;;
60610;SDS011;46439;51.164;13.572;2023-08-20T00:29:51;8.00;;;5.60;;
60610;SDS011;46439;51.164;13.572;2023-08-20T00:32:20;7.40;;;5.80;;
60610;SDS011;46439;51.164;13.572;2023-08-20T00:34:48;7.40;;;6.10;;
60610;SDS011;46439;51.164;13.572;2023-08-20T00:37:16;8.40;;;5.90;;
60610;SDS011;46439;51.164;13.572;2023-08-20T00:39:45;8.30;;;6.50;;
60610;SDS011;46439;51.164;13.572;2023-08-20T00:42:14;7.10;;;5.90;;
60610;SDS011;46439;51.164;13.572;2023-08-20T00:44:42;8.80;;;6.20;;
60610;SDS011;46439;51.164;13.572;2023-08-20T00:47:11;10.80;;;6.10;;
60610;SDS011;46439;51.164;13.572;2023-08-20T00:49:40;9.50;;;5.80;;
60610;SDS011;46439;51.164;13.572;2023-08-20T00:52:09;6.70;;;5.50;;
60610;SDS011;46439;51.164;13.572;2023-08-20T00:54:40;10.60;;;5.70;;
60610;SDS011;46439;51.164;13.572;2023-08-20T00:57:10;7.60;;;6.10;;
60610;SDS011;46439;51.164;13.572;2023-08-20T00:59:41;9.20;;;5.70;;
60610;SDS011;46439;51.164;13.572;2023-08-20T01:02:11;8.20;;;5.80;;
60610;SDS011;46439;51.164;13.572;2023-08-20T01:04:39;6.60;;;5.90;;
60610;SDS011;46439;51.164;13.572;2023-08-20T01:07:10;7.90;;;6.20;;
60610;SDS011;46439;51.164;13.572;2023-08-20T01:09:50;8.80;;;7.10;;
60610;SDS011;46439;51.164;13.572;2023-08-20T01:12:30;8.70;;;6.90;;
60610;SDS011;46439;51.164;13.572;2023-08-20T01:15:00;7.60;;;6.70;;
60610;SDS011;46439;51.164;13.572;2023-08-20T01:17:29;9.30;;;6.90;;
60610;SDS011;46439;51.164;13.572;2023-08-20T01:19:58;9.00;;;6.70;;
60610;SDS011;46439;51.164;13.572;2023-08-20T01:22:34;9.90;;;6.60;;
60610;SDS011;46439;51.164;13.572;2023-08-20T01:25:18;8.30;;;6.80;;
60610;SDS011;46439;51.164;13.572;2023-08-20T01:27:58;9.30;;;7.10;;
60610;SDS011;46439;51.164;13.572;2023-08-20T01:30:37;12.10;;;6.80;;
60610;SDS011;46439;51.164;13.572;2023-08-20T01:33:06;8.40;;;6.80;;
60610;SDS011;46439;51.164;13.572;2023-08-20T01:35:36;7.60;;;6.50;;
60610;SDS011;46439;51.164;13.572;2023-08-20T01:38:04;7.90;;;7.10;;
60610;SDS011;46439;51.164;13.572;2023-08-20T01:40:34;7.40;;;6.60;;
60610;SDS011;46439;51.164;13.572;2023-08-20T01:43:02;7.30;;;6.50;;
60610;SDS011;46439;51.164;13.572;2023-08-20T01:45:31;8.80;;;6.40;;
60610;SDS011;46439;51.164;13.572;2023-08-20T01:47:59;7.60;;;6.30;;
60610;SDS011;46439;51.164;13.572;2023-08-20T01:50:27;8.50;;;6.70;;
60610;SDS011;46439;51.164;13.572;2023-08-20T01:52:56;9.00;;;6.30;;
60610;SDS011;46439;51.164;13.572;2023-08-20T01:55:24;6.90;;;6.20;;
60610;SDS011;46439;51.164;13.572;2023-08-20T01:57:53;7.50;;;6.00;;
60610;SDS011;46439;51.164;13.572;2023-08-20T02:00:21;8.00;;;6.00;;
60610;SDS011;46439;51.164;13.572;2023-08-20T02:02:50;8.30;;;6.30;;
60610;SDS011;46439;51.164;13.572;2023-08-20T02:05:19;6.30;;;5.70;;
60610;SDS011;46439;51.164;13.572;2023-08-20T02:07:47;8.50;;;6.30;;
60610;SDS011;46439;51.164;13.572;2023-08-20T02:10:16;7.20;;;6.30;;
60610;SDS011;46439;51.164;13.572;2023-08-20T02:12:44;9.20;;;6.40;;
60610;SDS011;46439;51.164;13.572;2023-08-20T02:15:13;9.10;;;6.20;;
60610;SDS011;46439;51.164;13.572;2023-08-20T02:17:41;8.60;;;6.20;;
60610;SDS011;46439;51.164;13.572;2023-08-20T02:20:10;7.80;;;5.80;;
60610;SDS011;46439;51.164;13.572;2023-08-20T02:22:39;6.70;;;5.90;;
60610;SDS011;46439;51.164;13.572;2023-08-20T02:25:08;6.70;;;5.90;;
60610;SDS011;46439;51.164;13.572;2023-08-20T02:27:36;9.70;;;5.80;;
60610;SDS011;46439;51.164;13.572;2023-08-20T02:30:06;6.50;;;5.60;;
60610;SDS011;46439;51.164;13.572;2023-08-20T02:32:35;8.50;;;5.20;;
60610;SDS011;46439;51.164;13.572;2023-08-20T02:35:04;6.30;;;5.60;;
60610;SDS011;46439;51.164;13.572;2023-08-20T02:37:33;6.80;;;5.00;;
60610;SDS011;46439;51.164;13.572;2023-08-20T02:40:03;7.90;;;6.00;;
60610;SDS011;46439;51.164;13.572;2023-08-20T02:42:34;8.20;;;5.40;;
60610;SDS011;46439;51.164;13.572;2023-08-20T02:45:03;6.90;;;5.20;;
60610;SDS011;46439;51.164;13.572;2023-08-20T02:47:33;5.90;;;5.20;;
60610;SDS011;46439;51.164;13.572;2023-08-20T02:50:02;6.60;;;5.30;;
60610;SDS011;46439;51.164;13.572;2023-08-20T02:52:31;7.00;;;5.20;;
60610;SDS011;46439;51.164;13.572;2023-08-20T02:54:59;5.90;;;4.80;;
60610;SDS011;46439;51.164;13.572;2023-08-20T02:57:30;6.90;;;5.10;;
60610;SDS011;46439;51.164;13.572;2023-08-20T02:59:58;6.80;;;4.90;;
60610;SDS011;46439;51.164;13.572;2023-08-20T03:02:26;7.60;;;5.00;;
60610;SDS011;46439;51.164;13.572;2023-08-20T03:04:55;6.90;;;4.70;;
60610;SDS011;46439;51.164;13.572;2023-08-20T03:07:23;7.50;;;4.90;;
60610;SDS011;46439;51.164;13.572;2023-08-20T03:09:52;6.20;;;4.60;;
60610;SDS011;46439;51.164;13.572;2023-08-20T03:12:27;5.70;;;4.40;;
60610;SDS011;46439;51.164;13.572;2023-08-20T03:14:56;7.10;;;4.50;;
60610;SDS011;46439;51.164;13.572;2023-08-20T03:17:25;9.40;;;4.80;;
60610;SDS011;46439;51.164;13.572;2023-08-20T03:19:55;8.60;;;4.50;;
60610;SDS011;46439;51.164;13.572;2023-08-20T03:22:24;5.30;;;4.50;;
60610;SDS011;46439;51.164;13.572;2023-08-20T03:24:53;9.00;;;4.10;;
60610;SDS011;46439;51.164;13.572;2023-08-20T03:27:22;6.00;;;4.30;;
60610;SDS011;46439;51.164;13.572;2023-08-20T03:29:51;7.30;;;4.40;;
60610;SDS011;46439;51.164;13.572;2023-08-20T03:32:19;5.70;;;4.40;;
60610;SDS011;46439;51.164;13.572;2023-08-20T03:34:48;5.60;;;4.30;;
60610;SDS011;46439;51.164;13.572;2023-08-20T03:37:16;5.50;;;4.40;;
60610;SDS011;46439;51.164;13.572;2023-08-20T03:39:45;9.40;;;4.70;;
60610;SDS011;46439;51.164;13.572;2023-08-20T03:42:13;5.90;;;4.10;;
60610;SDS011;46439;51.164;13.572;2023-08-20T03:44:42;6.80;;;4.20;;
60610;SDS011;46439;51.164;13.572;2023-08-20T03:47:10;6.40;;;4.40;;
60610;SDS011;46439;51.164;13.572;2023-08-20T03:49:39;6.50;;;4.30;;
60610;SDS011;46439;51.164;13.572;2023-08-20T03:52:07;9.30;;;4.40;;
60610;SDS011;46439;51.164;13.572;2023-08-20T03:54:35;7.40;;;4.40;;
60610;SDS011;46439;51.164;13.572;2023-08-20T03:57:04;6.80;;;4.30;;
60610;SDS011;46439;51.164;13.572;2023-08-20T03:59:32;6.30;;;4.70;;
60610;SDS011;46439;51.164;13.572;2023-08-20T04:02:01;6.20;;;4.40;;
60610;SDS011;46439;51.164;13.572;2023-08-20T04:04:29;8.90;;;4.50;;
60610;SDS011;46439;51.164;13.572;2023-08-20T04:06:58;7.30;;;4.50;;
60610;SDS011;46439;51.164;13.572;2023-08-20T04:09:26;7.70;;;4.40;;
60610;SDS011;46439;51.164;13.572;2023-08-20T04:11:55;10.00;;;4.70;;
60610;SDS011;46439;51.164;13.572;2023-08-20T04:14:23;5.40;;;4.50;;
60610;SDS011;46439;51.164;13.572;2023-08-20T04:16:52;8.30;;;4.50;;
60610;SDS011;46439;51.164;13.572;2023-08-20T04:19:20;6.40;;;4.40;;
60610;SDS011;46439;51.164;13.572;2023-08-20T04:21:49;9.40;;;4.50;;
60610;SDS011;46439;51.164;13.572;2023-08-20T04:24:17;6.90;;;4.50;;
60610;SDS011;46439;51.164;13.572;2023-08-20T04:26:46;7.50;;;4.90;;
60610;SDS011;46439;51.164;13.572;2023-08-20T04:29:14;6.00;;;4.20;;
60610;SDS011;46439;51.164;13.572;2023-08-20T04:31:43;6.80;;;4.50;;
60610;SDS011;46439;51.164;13.572;2023-08-20T04:34:11;8.00;;;4.60;;
60610;SDS011;46439;51.164;13.572;2023-08-20T04:36:40;6.60;;;4.60;;
60610;SDS011;46439;51.164;13.572;2023-08-20T04:39:08;8.00;;;4.40;;
60610;SDS011;46439;51.164;13.572;2023-08-20T04:41:37;5.70;;;4.40;;
60610;SDS011;46439;51.164;13.572;2023-08-20T04:44:05;5.70;;;4.30;;
60610;SDS011;46439;51.164;13.572;2023-08-20T04:46:33;8.50;;;4.50;;
60610;SDS011;46439;51.164;13.572;2023-08-20T04:49:02;9.50;;;4.30;;
60610;SDS011;46439;51.164;13.572;2023-08-20T04:51:31;5.50;;;4.50;;
60610;SDS011;46439;51.164;13.572;2023-08-20T04:53:59;5.70;;;4.70;;
60610;SDS011;46439;51.164;13.572;2023-08-20T04:56:27;6.10;;;4.80;;
60610;SDS011;46439;51.164;13.572;2023-08-20T04:58:56;6.20;;;4.50;;
60610;SDS011;46439;51.164;13.572;2023-08-20T05:01:24;8.10;;;4.50;;
60610;SDS011;46439;51.164;13.572;2023-08-20T05:03:53;5.20;;;4.20;;
60610;SDS011;46439;51.164;13.572;2023-08-20T05:06:21;6.30;;;4.50;;
60610;SDS011;46439;51.164;13.572;2023-08-20T05:08:49;6.70;;;4.60;;
60610;SDS011;46439;51.164;13.572;2023-08-20T05:11:18;7.10;;;4.60;;
60610;SDS011;46439;51.164;13.572;2023-08-20T05:13:46;6.10;;;4.70;;
60610;SDS011;46439;51.164;13.572;2023-08-20T05:16:16;7.00;;;4.30;;
60610;SDS011;46439;51.164;13.572;2023-08-20T05:18:44;7.90;;;4.50;;
60610;SDS011;46439;51.164;13.572;2023-08-20T05:21:13;6.70;;;4.30;;
60610;SDS011;46439;51.164;13.572;2023-08-20T05:23:41;5.50;;;4.40;;
60610;SDS011;46439;51.164;13.572;2023-08-20T05:26:10;5.40;;;4.70;;
60610;SDS011;46439;51.164;13.572;2023-08-20T05:28:38;5.50;;;4.30;;
60610;SDS011;46439;51.164;13.572;2023-08-20T05:31:06;6.80;;;4.40;;
60610;SDS011;46439;51.164;13.572;2023-08-20T05:33:35;8.40;;;4.20;;
60610;SDS011;46439;51.164;13.572;2023-08-20T05:36:03;6.70;;;4.40;;
60610;SDS011;46439;51.164;13.572;2023-08-20T05:38:32;6.80;;;4.40;;
60610;SDS011;46439;51.164;13.572;2023-08-20T05:41:01;7.40;;;4.60;;
60610;SDS011;46439;51.164;13.572;2023-08-20T05:43:29;7.20;;;4.40;;
60610;SDS011;46439;51.164;13.572;2023-08-20T05:45:57;5.30;;;4.10;;
60610;SDS011;46439;51.164;13.572;2023-08-20T05:48:26;6.70;;;4.60;;
60610;SDS011;46439;51.164;13.572;2023-08-20T05:50:55;7.20;;;4.50;;
60610;SDS011;46439;51.164;13.572;2023-08-20T05:53:23;7.50;;;4.40;;
60610;SDS011;46439;51.164;13.572;2023-08-20T05:55:52;5.00;;;4.30;;
60610;SDS011;46439;51.164;13.572;2023-08-20T05:58:20;7.30;;;4.40;;
60610;SDS011;46439;51.164;13.572;2023-08-20T06:00:48;6.30;;;4.30;;
60610;SDS011;46439;51.164;13.572;2023-08-20T06:03:17;5.60;;;4.40;;
60610;SDS011;46439;51.164;13.572;2023-08-20T06:05:45;6.60;;;4.40;;
60610;SDS011;46439;51.164;13.572;2023-08-20T06:08:13;6.30;;;4.40;;
60610;SDS011;46439;51.164;13.572;2023-08-20T06:10:42;7.80;;;4.20;;
60610;SDS011;46439;51.164;13.572;2023-08-20T06:13:10;4.80;;;4.20;;
60610;SDS011;46439;51.164;13.572;2023-08-20T06:15:39;5.60;;;4.50;;
60610;SDS011;46439;51.164;13.572;2023-08-20T06:18:07;5.30;;;4.10;;
60610;SDS011;46439;51.164;13.572;2023-08-20T06:20:36;6.50;;;4.70;;
60610;SDS011;46439;51.164;13.572;2023-08-20T06:23:04;6.80;;;4.30;;
60610;SDS011;46439;51.164;13.572;2023-08-20T06:25:33;6.30;;;4.40;;
60610;SDS011;46439;51.164;13.572;2023-08-20T06:28:01;6.30;;;4.50;;
60610;SDS011;46439;51.164;13.572;2023-08-20T06:30:30;5.80;;;4.50;;
60610;SDS011;46439;51.164;13.572;2023-08-20T06:32:59;5.90;;;4.10;;
60610;SDS011;46439;51.164;13.572;2023-08-20T06:35:27;6.30;;;4.50;;
60610;SDS011;46439;51.164;13.572;2023-08-20T06:37:55;6.20;;;4.60;;
60610;SDS011;46439;51.164;13.572;2023-08-20T06:40:24;5.70;;;4.20;;
60610;SDS011;46439;51.164;13.572;2023-08-20T06:42:52;6.90;;;4.50;;
60610;SDS011;46439;51.164;13.572;2023-08-20T06:45:20;8.60;;;4.60;;
60610;SDS011;46439;51.164;13.572;2023-08-20T06:47:49;8.00;;;5.20;;
60610;SDS011;46439;51.164;13.572;2023-08-20T06:50:17;6.10;;;4.70;;
60610;SDS011;46439;51.164;13.572;2023-08-20T06:52:46;5.60;;;4.40;;
60610;SDS011;46439;51.164;13.572;2023-08-20T06:55:14;5.00;;;4.00;;
60610;SDS011;46439;51.164;13.572;2023-08-20T06:57:42;5.30;;;4.60;;
60610;SDS011;46439;51.164;13.572;2023-08-20T07:00:11;5.10;;;4.30;;
60610;SDS011;46439;51.164;13.572;2023-08-20T07:02:40;6.90;;;4.50;;
60610;SDS011;46439;51.164;13.572;2023-08-20T07:05:08;7.10;;;4.60;;
60610;SDS011;46439;51.164;13.572;2023-08-20T07:07:37;5.70;;;4.10;;
60610;SDS011;46439;51.164;13.572;2023-08-20T07:10:07;5.40;;;4.40;;
60610;SDS011;46439;51.164;13.572;2023-08-20T07:12:35;6.80;;;4.30;;
60610;SDS011;46439;51.164;13.572;2023-08-20T07:15:04;5.70;;;4.20;;
60610;SDS011;46439;51.164;13.572;2023-08-20T07:17:34;6.20;;;4.20;;
60610;SDS011;46439;51.164;13.572;2023-08-20T07:20:03;7.90;;;4.40;;
60610;SDS011;46439;51.164;13.572;2023-08-20T07:22:33;10.60;;;5.10;;
60610;SDS011;46439;51.164;13.572;2023-08-20T07:25:01;6.00;;;4.60;;
60610;SDS011;46439;51.164;13.572;2023-08-20T07:27:30;9.20;;;4.50;;
60610;SDS011;46439;51.164;13.572;2023-08-20T07:29:58;4.90;;;4.20;;
60610;SDS011;46439;51.164;13.572;2023-08-20T07:32:27;7.40;;;4.20;;
60610;SDS011;46439;51.164;13.572;2023-08-20T07:34:55;8.10;;;4.70;;
60610;SDS011;46439;51.164;13.572;2023-08-20T07:37:24;6.10;;;4.20;;
60610;SDS011;46439;51.164;13.572;2023-08-20T07:39:52;6.20;;;4.20;;
60610;SDS011;46439;51.164;13.572;2023-08-20T07:42:20;5.60;;;4.30;;
60610;SDS011;46439;51.164;13.572;2023-08-20T07:44:49;6.30;;;4.30;;
60610;SDS011;46439;51.164;13.572;2023-08-20T07:47:17;6.50;;;4.40;;
60610;SDS011;46439;51.164;13.572;2023-08-20T07:49:45;5.60;;;4.50;;
60610;SDS011;46439;51.164;13.572;2023-08-20T07:52:14;5.50;;;4.80;;
60610;SDS011;46439;51.164;13.572;2023-08-20T07:54:42;6.00;;;4.30;;
60610;SDS011;46439;51.164;13.572;2023-08-20T07:57:11;5.50;;;4.30;;
60610;SDS011;46439;51.164;13.572;2023-08-20T07:59:39;4.90;;;4.40;;
60610;SDS011;46439;51.164;13.572;2023-08-20T08:02:08;6.60;;;4.90;;
60610;SDS011;46439;51.164;13.572;2023-08-20T08:04:36;5.80;;;4.80;;
60610;SDS011;46439;51.164;13.572;2023-08-20T08:07:06;6.90;;;4.60;;
60610;SDS011;46439;51.164;13.572;2023-08-20T08:09:34;5.00;;;4.40;;
60610;SDS011;46439;51.164;13.572;2023-08-20T08:12:03;7.20;;;4.40;;
60610;SDS011;46439;51.164;13.572;2023-08-20T08:14:33;5.60;;;5.00;;
60610;SDS011;46439;51.164;13.572;2023-08-20T08:17:01;6.70;;;5.10;;
60610;SDS011;46439;51.164;13.572;2023-08-20T08:19:30;5.80;;;4.70;;
60610;SDS011;46439;51.164;13.572;2023-08-20T08:21:59;6.00;;;4.70;;
60610;SDS011;46439;51.164;13.572;2023-08-20T08:24:27;6.70;;;5.00;;
60610;SDS011;46439;51.164;13.572;2023-08-20T08:26:56;5.80;;;4.70;;
60610;SDS011;46439;51.164;13.572;2023-08-20T08:29:24;5.60;;;5.00;;
60610;SDS011;46439;51.164;13.572;2023-08-20T08:31:52;7.80;;;5.30;;
60610;SDS011;46439;51.164;13.572;2023-08-20T08:34:21;5.80;;;4.80;;
60610;SDS011;46439;51.164;13.572;2023-08-20T08:36:49;6.00;;;5.30;;
60610;SDS011;46439;51.164;13.572;2023-08-20T08:39:17;6.90;;;6.00;;
60610;SDS011;46439;51.164;13.572;2023-08-20T08:41:46;8.10;;;5.80;;
60610;SDS011;46439;51.164;13.572;2023-08-20T08:44:20;6.40;;;5.80;;
60610;SDS011;46439;51.164;13.572;2023-08-20T08:46:50;7.40;;;6.60;;
60610;SDS011;46439;51.164;13.572;2023-08-20T08:49:19;8.80;;;6.30;;
60610;SDS011;46439;51.164;13.572;2023-08-20T08:51:47;7.10;;;6.00;;
60610;SDS011;46439;51.164;13.572;2023-08-20T08:54:17;6.30;;;5.60;;
60610;SDS011;46439;51.164;13.572;2023-08-20T08:56:46;6.00;;;5.40;;
60610;SDS011;46439;51.164;13.572;2023-08-20T08:59:15;7.30;;;5.80;;
60610;SDS011;46439;51.164;13.572;2023-08-20T09:01:43;6.90;;;5.50;;
60610;SDS011;46439;51.164;13.572;2023-08-20T09:04:12;6.90;;;5.40;;
60610;SDS011;46439;51.164;13.572;2023-08-20T09:06:46;8.20;;;5.20;;
60610;SDS011;46439;51.164;13.572;2023-08-20T09:09:16;7.70;;;5.50;;
60610;SDS011;46439;51.164;13.572;2023-08-20T09:11:46;7.80;;;6.20;;
60610;SDS011;46439;51.164;13.572;2023-08-20T09:14:21;6.80;;;5.60;;
60610;SDS011;46439;51.164;13.572;2023-08-20T09:17:00;6.30;;;5.50;;
60610;SDS011;46439;51.164;13.572;2023-08-20T09:19:30;6.50;;;5.60;;
60610;SDS011;46439;51.164;13.572;2023-08-20T09:22:05;6.20;;;5.30;;
60610;SDS011;46439;51.164;13.572;2023-08-20T09:24:34;5.80;;;5.20;;
60610;SDS011;46439;51.164;13.572;2023-08-20T09:27:11;9.50;;;5.80;;
60610;SDS011;46439;51.164;13.572;2023-08-20T09:29:47;7.00;;;5.20;;
60610;SDS011;46439;51.164;13.572;2023-08-20T09:32:17;6.30;;;5.30;;
60610;SDS011;46439;51.164;13.572;2023-08-20T09:34:46;7.60;;;5.90;;
60610;SDS011;46439;51.164;13.572;2023-08-20T09:37:16;7.30;;;5.60;;
60610;SDS011;46439;51.164;13.572;2023-08-20T09:39:46;6.10;;;5.20;;
60610;SDS011;46439;51.164;13.572;2023-08-20T09:42:15;6.00;;;5.00;;
60610;SDS011;46439;51.164;13.572;2023-08-20T09:44:45;7.00;;;5.50;;
60610;SDS011;46439;51.164;13.572;2023-08-20T09:47:16;6.00;;;5.00;;
60610;SDS011;46439;51.164;13.572;2023-08-20T09:49:45;6.70;;;5.60;;
60610;SDS011;46439;51.164;13.572;2023-08-20T09:52:16;5.40;;;4.90;;
60610;SDS011;46439;51.164;13.572;2023-08-20T09:54:55;5.60;;;5.10;;
60610;SDS011;46439;51.164;13.572;2023-08-20T09:57:35;7.20;;;5.40;;
60610;SDS011;46439;51.164;13.572;2023-08-20T10:00:05;5.30;;;4.80;;
60610;SDS011;46439;51.164;13.572;2023-08-20T10:02:38;5.30;;;4.80;;
60610;SDS011;46439;51.164;13.572;2023-08-20T10:05:08;5.80;;;4.60;;
60610;SDS011;46439;51.164;13.572;2023-08-20T10:07:39;5.00;;;4.50;;
60610;SDS011;46439;51.164;13.572;2023-08-20T10:10:09;6.20;;;4.80;;
60610;SDS011;46439;51.164;13.572;2023-08-20T10:12:43;7.60;;;5.00;;
60610;SDS011;46439;51.164;13.572;2023-08-20T10:15:12;5.90;;;5.30;;
60610;SDS011;46439;51.164;13.572;2023-08-20T10:17:42;6.10;;;4.90;;
60610;SDS011;46439;51.164;13.572;2023-08-20T10:20:14;5.00;;;4.30;;
60610;SDS011;46439;51.164;13.572;2023-08-20T10:22:45;5.30;;;4.60;;
60610;SDS011;46439;51.164;13.572;2023-08-20T10:25:23;5.90;;;4.40;;
60610;SDS011;46439;51.164;13.572;2023-08-20T10:27:52;5.00;;;4.30;;
60610;SDS011;46439;51.164;13.572;2023-08-20T10:30:23;6.10;;;4.70;;
60610;SDS011;46439;51.164;13.572;2023-08-20T10:32:53;5.30;;;4.70;;
60610;SDS011;46439;51.164;13.572;2023-08-20T10:35:24;5.90;;;5.10;;
60610;SDS011;46439;51.164;13.572;2023-08-20T10:38:04;5.40;;;4.30;;
60610;SDS011;46439;51.164;13.572;2023-08-20T10:43:27;7.10;;;4.40;;
60610;SDS011;46439;51.164;13.572;2023-08-20T10:46:05;5.30;;;4.80;;
60610;SDS011;46439;51.164;13.572;2023-08-20T10:48:46;6.00;;;4.50;;
60610;SDS011;46439;51.164;13.572;2023-08-20T10:51:16;5.80;;;4.60;;
60610;SDS011;46439;51.164;13.572;2023-08-20T10:54:02;5.50;;;4.60;;
60610;SDS011;46439;51.164;13.572;2023-08-20T10:56:39;5.90;;;4.40;;
60610;SDS011;46439;51.164;13.572;2023-08-20T10:59:12;6.20;;;4.30;;
60610;SDS011;46439;51.164;13.572;2023-08-20T11:01:44;7.10;;;4.30;;
60610;SDS011;46439;51.164;13.572;2023-08-20T11:04:14;5.00;;;4.20;;
60610;SDS011;46439;51.164;13.572;2023-08-20T11:06:44;5.00;;;4.00;;
60610;SDS011;46439;51.164;13.572;2023-08-20T11:09:13;5.00;;;4.50;;
60610;SDS011;46439;51.164;13.572;2023-08-20T11:11:42;5.30;;;4.10;;
60610;SDS011;46439;51.164;13.572;2023-08-20T11:14:13;5.00;;;4.10;;
60610;SDS011;46439;51.164;13.572;2023-08-20T11:16:42;5.10;;;4.30;;
60610;SDS011;46439;51.164;13.572;2023-08-20T11:19:11;6.00;;;4.10;;
60610;SDS011;46439;51.164;13.572;2023-08-20T11:21:41;5.00;;;4.30;;
60610;SDS011;46439;51.164;13.572;2023-08-20T11:24:09;4.70;;;4.10;;
60610;SDS011;46439;51.164;13.572;2023-08-20T11:26:39;4.40;;;3.80;;
60610;SDS011;46439;51.164;13.572;2023-08-20T11:29:09;5.00;;;4.40;;
60610;SDS011;46439;51.164;13.572;2023-08-20T11:31:39;4.90;;;4.00;;
60610;SDS011;46439;51.164;13.572;2023-08-20T11:34:07;5.50;;;4.00;;
60610;SDS011;46439;51.164;13.572;2023-08-20T11:36:38;4.50;;;4.00;;
60610;SDS011;46439;51.164;13.572;2023-08-20T11:39:06;4.40;;;4.00;;
60610;SDS011;46439;51.164;13.572;2023-08-20T11:41:37;7.00;;;3.70;;
60610;SDS011;46439;51.164;13.572;2023-08-20T11:46:41;4.40;;;3.70;;
60610;SDS011;46439;51.164;13.572;2023-08-20T11:49:11;3.90;;;3.50;;
60610;SDS011;46439;51.164;13.572;2023-08-20T11:51:40;3.70;;;3.30;;
60610;SDS011;46439;51.164;13.572;2023-08-20T11:54:12;3.50;;;3.20;;
60610;SDS011;46439;51.164;13.572;2023-08-20T11:56:44;3.90;;;3.50;;
60610;SDS011;46439;51.164;13.572;2023-08-20T11:59:14;5.00;;;3.60;;
60610;SDS011;46439;51.164;13.572;2023-08-20T12:01:43;5.20;;;3.60;;
60610;SDS011;46439;51.164;13.572;2023-08-20T12:04:16;5.50;;;3.90;;
60610;SDS011;46439;51.164;13.572;2023-08-20T12:06:45;5.70;;;3.80;;
60610;SDS011;46439;51.164;13.572;2023-08-20T12:09:32;6.00;;;3.50;;
60610;SDS011;46439;51.164;13.572;2023-08-20T12:12:01;5.80;;;3.70;;
60610;SDS011;46439;51.164;13.572;2023-08-20T12:14:32;3.50;;;3.10;;
60610;SDS011;46439;51.164;13.572;2023-08-20T12:17:01;4.40;;;3.40;;
60610;SDS011;46439;51.164;13.572;2023-08-20T12:19:30;4.10;;;3.30;;
60610;SDS011;46439;51.164;13.572;2023-08-20T12:21:59;3.60;;;3.10;;
60610;SDS011;46439;51.164;13.572;2023-08-20T12:24:27;4.00;;;3.30;;
60610;SDS011;46439;51.164;13.572;2023-08-20T12:26:56;3.90;;;3.30;;
60610;SDS011;46439;51.164;13.572;2023-08-20T12:29:24;3.80;;;3.30;;
60610;SDS011;46439;51.164;13.572;2023-08-20T12:31:53;4.90;;;3.30;;
60610;SDS011;46439;51.164;13.572;2023-08-20T12:34:22;3.80;;;3.40;;
60610;SDS011;46439;51.164;13.572;2023-08-20T12:36:51;3.70;;;3.30;;
60610;SDS011;46439;51.164;13.572;2023-08-20T12:39:20;6.20;;;3.50;;
60610;SDS011;46439;51.164;13.572;2023-08-20T12:41:48;5.20;;;3.40;;
60610;SDS011;46439;51.164;13.572;2023-08-20T12:44:17;4.40;;;3.30;;
60610;SDS011;46439;51.164;13.572;2023-08-20T12:46:45;5.60;;;3.20;;
60610;SDS011;46439;51.164;13.572;2023-08-20T12:49:14;5.70;;;3.40;;
60610;SDS011;46439;51.164;13.572;2023-08-20T12:51:42;4.10;;;3.30;;
60610;SDS011;46439;51.164;13.572;2023-08-20T12:54:10;4.90;;;3.30;;
60610;SDS011;46439;51.164;13.572;2023-08-20T12:56:39;4.00;;;3.40;;
60610;SDS011;46439;51.164;13.572;2023-08-20T12:59:07;3.30;;;3.00;;
60610;SDS011;46439;51.164;13.572;2023-08-20T13:01:36;5.00;;;3.50;;
60610;SDS011;46439;51.164;13.572;2023-08-20T13:04:05;4.40;;;3.40;;
60610;SDS011;46439;51.164;13.572;2023-08-20T13:06:36;3.50;;;3.20;;
60610;SDS011;46439;51.164;13.572;2023-08-20T13:09:06;4.70;;;3.70;;
60610;SDS011;46439;51.164;13.572;2023-08-20T13:11:36;4.20;;;3.80;;
60610;SDS011;46439;51.164;13.572;2023-08-20T13:14:07;3.60;;;3.30;;
60610;SDS011;46439;51.164;13.572;2023-08-20T13:16:37;4.80;;;3.30;;
60610;SDS011;46439;51.164;13.572;2023-08-20T13:19:07;4.80;;;3.40;;
60610;SDS011;46439;51.164;13.572;2023-08-20T13:21:36;4.30;;;3.60;;
60610;SDS011;46439;51.164;13.572;2023-08-20T13:24:06;5.20;;;3.30;;
60610;SDS011;46439;51.164;13.572;2023-08-20T13:26:35;4.10;;;3.50;;
60610;SDS011;46439;51.164;13.572;2023-08-20T13:29:04;4.50;;;3.40;;
60610;SDS011;46439;51.164;13.572;2023-08-20T13:31:32;5.90;;;3.70;;
60610;SDS011;46439;51.164;13.572;2023-08-20T13:34:02;4.80;;;3.50;;
60610;SDS011;46439;51.164;13.572;2023-08-20T13:36:31;5.40;;;3.30;;
60610;SDS011;46439;51.164;13.572;2023-08-20T13:38:59;6.40;;;3.60;;
60610;SDS011;46439;51.164;13.572;2023-08-20T13:41:28;5.40;;;3.50;;
60610;SDS011;46439;51.164;13.572;2023-08-20T13:43:57;4.10;;;3.40;;
60610;SDS011;46439;51.164;13.572;2023-08-20T13:46:25;4.80;;;3.50;;
60610;SDS011;46439;51.164;13.572;2023-08-20T13:48:55;6.30;;;3.30;;
60610;SDS011;46439;51.164;13.572;2023-08-20T13:51:23;4.30;;;3.30;;
60610;SDS011;46439;51.164;13.572;2023-08-20T13:53:52;4.20;;;3.20;;
60610;SDS011;46439;51.164;13.572;2023-08-20T13:56:20;4.60;;;3.30;;
60610;SDS011;46439;51.164;13.572;2023-08-20T13:58:49;5.00;;;3.20;;
60610;SDS011;46439;51.164;13.572;2023-08-20T14:01:17;4.00;;;3.30;;
60610;SDS011;46439;51.164;13.572;2023-08-20T14:03:46;7.70;;;4.00;;
60610;SDS011;46439;51.164;13.572;2023-08-20T14:06:14;4.80;;;3.70;;
60610;SDS011;46439;51.164;13.572;2023-08-20T14:08:43;3.80;;;3.40;;
60610;SDS011;46439;51.164;13.572;2023-08-20T14:11:11;3.80;;;3.40;;
60610;SDS011;46439;51.164;13.572;2023-08-20T14:13:40;4.80;;;3.40;;
60610;SDS011;46439;51.164;13.572;2023-08-20T14:16:09;3.90;;;3.50;;
60610;SDS011;46439;51.164;13.572;2023-08-20T14:18:37;3.80;;;3.40;;
60610;SDS011;46439;51.164;13.572;2023-08-20T14:21:06;5.10;;;3.70;;
60610;SDS011;46439;51.164;13.572;2023-08-20T14:23:34;5.30;;;3.70;;
60610;SDS011;46439;51.164;13.572;2023-08-20T14:26:04;4.80;;;3.50;;
60610;SDS011;46439;51.164;13.572;2023-08-20T14:28:33;6.50;;;3.70;;
60610;SDS011;46439;51.164;13.572;2023-08-20T14:31:03;5.10;;;3.40;;
60610;SDS011;46439;51.164;13.572;2023-08-20T14:33:32;4.00;;;3.50;;
60610;SDS011;46439;51.164;13.572;2023-08-20T14:36:00;4.80;;;3.40;;
60610;SDS011;46439;51.164;13.572;2023-08-20T14:38:30;7.80;;;3.60;;
60610;SDS011;46439;51.164;13.572;2023-08-20T14:41:00;5.00;;;3.50;;
60610;SDS011;46439;51.164;13.572;2023-08-20T14:43:29;5.90;;;3.50;;
60610;SDS011;46439;51.164;13.572;2023-08-20T14:45:59;5.60;;;3.30;;
60610;SDS011;46439;51.164;13.572;2023-08-20T14:48:27;4.90;;;3.30;;
60610;SDS011;46439;51.164;13.572;2023-08-20T14:50:56;4.70;;;3.50;;
60610;SDS011;46439;51.164;13.572;2023-08-20T14:53:24;5.40;;;3.40;;